sensor_id;sensor_type;location;lat;lon;timestamp;temperature;humidity
20839;DHT22;10580;51.092;6.828;2023-02-19T00:00:52;10.40;99.90
20839;DHT22;10580;51.092;6.828;2023-02-19T00:03:18;10.40;99.90
20839;DHT22;10580;51.092;6.828;2023-02-19T00:05:43;10.40;99.90
20839;DHT22;10580;51.092;6.828;2023-02-19T00:08:09;10.40;99.90
20839;DHT22;10580;51.092;6.828;2023-02-19T00:10:34;10.40;99.90
20839;DHT22;10580;51.092;6.828;2023-02-19T00:13:00;10.40;99.90
20839;DHT22;10580;51.092;6.828;2023-02-19T00:15:25;10.40;99.90
20839;DHT22;10580;51.092;6.828;2023-02-19T00:17:51;10.40;99.90
20839;DHT22;10580;51.092;6.828;2023-02-19T00:20:16;10.40;99.90
20839;DHT22;10580;51.092;6.828;2023-02-19T00:22:42;10.40;99.90
20839;DHT22;10580;51.092;6.828;2023-02-19T00:25:08;10.40;99.90
20839;DHT22;10580;51.092;6.828;2023-02-19T00:27:33;10.50;99.90
20839;DHT22;10580;51.092;6.828;2023-02-19T00:29:59;10.40;99.90
20839;DHT22;10580;51.092;6.828;2023-02-19T00:32:24;10.40;99.90
20839;DHT22;10580;51.092;6.828;2023-02-19T00:34:50;10.50;99.90
20839;DHT22;10580;51.092;6.828;2023-02-19T00:37:15;10.40;99.90
20839;DHT22;10580;51.092;6.828;2023-02-19T00:39:41;10.40;99.90
20839;DHT22;10580;51.092;6.828;2023-02-19T00:42:06;10.40;99.90
20839;DHT22;10580;51.092;6.828;2023-02-19T00:44:32;10.40;99.90
20839;DHT22;10580;51.092;6.828;2023-02-19T00:46:57;10.40;99.90
20839;DHT22;10580;51.092;6.828;2023-02-19T00:49:23;10.40;99.90
20839;DHT22;10580;51.092;6.828;2023-02-19T00:51:50;10.50;99.90
20839;DHT22;10580;51.092;6.828;2023-02-19T00:54:16;10.50;99.90
20839;DHT22;10580;51.092;6.828;2023-02-19T00:59:18;10.50;99.90
20839;DHT22;10580;51.092;6.828;2023-02-19T01:01:44;10.50;99.90
20839;DHT22;10580;51.092;6.828;2023-02-19T01:07:13;10.50;99.90
20839;DHT22;10580;51.092;6.828;2023-02-19T01:09:38;10.60;99.90
20839;DHT22;10580;51.092;6.828;2023-02-19T01:12:05;10.60;99.90
20839;DHT22;10580;51.092;6.828;2023-02-19T01:14:31;10.60;99.90
20839;DHT22;10580;51.092;6.828;2023-02-19T01:16:56;10.60;99.90
20839;DHT22;10580;51.092;6.828;2023-02-19T01:19:22;10.50;99.90
20839;DHT22;10580;51.092;6.828;2023-02-19T01:21:48;10.60;99.90
20839;DHT22;10580;51.092;6.828;2023-02-19T01:24:13;10.60;99.90
20839;DHT22;10580;51.092;6.828;2023-02-19T01:26:39;10.60;99.90
20839;DHT22;10580;51.092;6.828;2023-02-19T01:29:05;10.60;99.90
20839;DHT22;10580;51.092;6.828;2023-02-19T01:31:31;10.60;99.90
20839;DHT22;10580;51.092;6.828;2023-02-19T01:33:59;10.60;99.90
20839;DHT22;10580;51.092;6.828;2023-02-19T01:36:26;10.60;99.90
20839;DHT22;10580;51.092;6.828;2023-02-19T01:38:52;10.60;99.90
20839;DHT22;10580;51.092;6.828;2023-02-19T01:41:23;10.60;99.90
20839;DHT22;10580;51.092;6.828;2023-02-19T01:44:03;10.60;99.90
20839;DHT22;10580;51.092;6.828;2023-02-19T01:46:33;10.60;99.90
20839;DHT22;10580;51.092;6.828;2023-02-19T01:49:16;10.60;99.90
20839;DHT22;10580;51.092;6.828;2023-02-19T01:52:04;10.60;99.90
20839;DHT22;10580;51.092;6.828;2023-02-19T01:54:35;10.60;99.90
20839;DHT22;10580;51.092;6.828;2023-02-19T01:57:06;10.60;99.90
20839;DHT22;10580;51.092;6.828;2023-02-19T01:59:32;10.60;99.90
20839;DHT22;10580;51.092;6.828;2023-02-19T02:01:59;10.60;99.90
20839;DHT22;10580;51.092;6.828;2023-02-19T02:04:25;10.60;99.90
20839;DHT22;10580;51.092;6.828;2023-02-19T02:06:53;10.60;99.90
20839;DHT22;10580;51.092;6.828;2023-02-19T02:09:24;10.60;99.90
20839;DHT22;10580;51.092;6.828;2023-02-19T02:12:09;10.60;99.90
20839;DHT22;10580;51.092;6.828;2023-02-19T02:14:38;10.60;99.90
20839;DHT22;10580;51.092;6.828;2023-02-19T02:17:24;10.60;99.90
20839;DHT22;10580;51.092;6.828;2023-02-19T02:23:14;10.60;99.90
20839;DHT22;10580;51.092;6.828;2023-02-19T02:26:15;10.60;99.90
20839;DHT22;10580;51.092;6.828;2023-02-19T02:31:58;10.50;99.90
20839;DHT22;10580;51.092;6.828;2023-02-19T02:34:47;10.50;99.90
20839;DHT22;10580;51.092;6.828;2023-02-19T02:37:14;10.50;99.90
20839;DHT22;10580;51.092;6.828;2023-02-19T02:39:41;10.50;99.90
20839;DHT22;10580;51.092;6.828;2023-02-19T02:42:08;10.40;99.90
20839;DHT22;10580;51.092;6.828;2023-02-19T02:44:56;10.40;99.90
20839;DHT22;10580;51.092;6.828;2023-02-19T02:47:59;10.30;99.90
20839;DHT22;10580;51.092;6.828;2023-02-19T02:50:35;10.30;99.90
20839;DHT22;10580;51.092;6.828;2023-02-19T02:53:06;10.20;99.90
20839;DHT22;10580;51.092;6.828;2023-02-19T02:55:52;10.30;99.90
20839;DHT22;10580;51.092;6.828;2023-02-19T02:58:19;10.20;99.90
20839;DHT22;10580;51.092;6.828;2023-02-19T03:00:51;10.20;99.90
20839;DHT22;10580;51.092;6.828;2023-02-19T03:03:37;10.20;99.90
20839;DHT22;10580;51.092;6.828;2023-02-19T03:06:05;10.20;99.90
20839;DHT22;10580;51.092;6.828;2023-02-19T03:08:39;10.20;99.90
20839;DHT22;10580;51.092;6.828;2023-02-19T03:11:09;10.20;99.90
20839;DHT22;10580;51.092;6.828;2023-02-19T03:16:45;10.20;99.90
20839;DHT22;10580;51.092;6.828;2023-02-19T03:19:34;10.20;99.90
20839;DHT22;10580;51.092;6.828;2023-02-19T03:22:15;10.20;99.90
20839;DHT22;10580;51.092;6.828;2023-02-19T03:24:48;10.20;99.90
20839;DHT22;10580;51.092;6.828;2023-02-19T03:27:35;10.20;99.90
20839;DHT22;10580;51.092;6.828;2023-02-19T03:30:07;10.20;99.90
20839;DHT22;10580;51.092;6.828;2023-02-19T03:32:45;10.20;99.90
20839;DHT22;10580;51.092;6.828;2023-02-19T03:35:22;10.20;99.90
20839;DHT22;10580;51.092;6.828;2023-02-19T03:40:17;10.20;99.90
20839;DHT22;10580;51.092;6.828;2023-02-19T03:45:31;10.20;99.90
20839;DHT22;10580;51.092;6.828;2023-02-19T03:50:29;10.20;99.90
20839;DHT22;10580;51.092;6.828;2023-02-19T03:53:04;10.20;99.90
20839;DHT22;10580;51.092;6.828;2023-02-19T03:56:01;10.20;99.90
20839;DHT22;10580;51.092;6.828;2023-02-19T03:58:57;10.20;99.90
20839;DHT22;10580;51.092;6.828;2023-02-19T04:04:10;10.20;99.90
20839;DHT22;10580;51.092;6.828;2023-02-19T04:06:40;10.20;99.90
20839;DHT22;10580;51.092;6.828;2023-02-19T04:09:08;10.20;99.90
20839;DHT22;10580;51.092;6.828;2023-02-19T04:11:36;10.20;99.90
20839;DHT22;10580;51.092;6.828;2023-02-19T04:16:50;10.10;99.90
20839;DHT22;10580;51.092;6.828;2023-02-19T04:19:19;10.10;99.90
20839;DHT22;10580;51.092;6.828;2023-02-19T04:21:46;10.10;99.90
20839;DHT22;10580;51.092;6.828;2023-02-19T04:24:25;10.10;99.90
20839;DHT22;10580;51.092;6.828;2023-02-19T04:26:53;10.00;99.90
20839;DHT22;10580;51.092;6.828;2023-02-19T04:29:19;10.10;99.90
20839;DHT22;10580;51.092;6.828;2023-02-19T04:31:46;10.10;99.90
20839;DHT22;10580;51.092;6.828;2023-02-19T04:34:12;10.00;99.90
20839;DHT22;10580;51.092;6.828;2023-02-19T04:36:37;10.00;99.90
20839;DHT22;10580;51.092;6.828;2023-02-19T04:39:03;10.00;99.90
20839;DHT22;10580;51.092;6.828;2023-02-19T04:41:28;10.00;99.90
20839;DHT22;10580;51.092;6.828;2023-02-19T04:43:54;9.90;99.90
20839;DHT22;10580;51.092;6.828;2023-02-19T04:46:20;9.90;99.90
20839;DHT22;10580;51.092;6.828;2023-02-19T04:48:45;9.90;99.90
20839;DHT22;10580;51.092;6.828;2023-02-19T04:51:11;9.90;99.90
20839;DHT22;10580;51.092;6.828;2023-02-19T04:53:37;9.90;99.90
20839;DHT22;10580;51.092;6.828;2023-02-19T04:56:10;9.90;99.90
20839;DHT22;10580;51.092;6.828;2023-02-19T04:58:36;9.90;99.90
20839;DHT22;10580;51.092;6.828;2023-02-19T05:01:03;9.90;99.90
20839;DHT22;10580;51.092;6.828;2023-02-19T05:03:28;9.90;99.90
20839;DHT22;10580;51.092;6.828;2023-02-19T05:05:54;9.90;99.90
20839;DHT22;10580;51.092;6.828;2023-02-19T05:08:20;9.90;99.90
20839;DHT22;10580;51.092;6.828;2023-02-19T05:10:45;9.90;99.90
20839;DHT22;10580;51.092;6.828;2023-02-19T05:13:11;9.90;99.90
20839;DHT22;10580;51.092;6.828;2023-02-19T05:15:36;9.80;99.90
20839;DHT22;10580;51.092;6.828;2023-02-19T05:18:02;9.80;99.90
20839;DHT22;10580;51.092;6.828;2023-02-19T05:20:27;9.80;99.90
20839;DHT22;10580;51.092;6.828;2023-02-19T05:22:53;9.80;99.90
20839;DHT22;10580;51.092;6.828;2023-02-19T05:25:19;9.70;99.90
20839;DHT22;10580;51.092;6.828;2023-02-19T05:27:44;9.70;99.90
20839;DHT22;10580;51.092;6.828;2023-02-19T05:30:10;9.70;99.90
20839;DHT22;10580;51.092;6.828;2023-02-19T05:32:37;9.70;99.90
20839;DHT22;10580;51.092;6.828;2023-02-19T05:35:03;9.70;99.90
20839;DHT22;10580;51.092;6.828;2023-02-19T05:37:28;9.70;99.90
20839;DHT22;10580;51.092;6.828;2023-02-19T05:39:54;9.70;99.90
20839;DHT22;10580;51.092;6.828;2023-02-19T05:42:19;9.70;99.90
20839;DHT22;10580;51.092;6.828;2023-02-19T05:44:45;9.70;99.90
20839;DHT22;10580;51.092;6.828;2023-02-19T05:47:10;9.70;99.90
20839;DHT22;10580;51.092;6.828;2023-02-19T05:49:36;9.60;99.90
20839;DHT22;10580;51.092;6.828;2023-02-19T05:52:02;9.60;99.90
20839;DHT22;10580;51.092;6.828;2023-02-19T05:54:28;9.60;99.90
20839;DHT22;10580;51.092;6.828;2023-02-19T05:56:54;9.60;99.90
20839;DHT22;10580;51.092;6.828;2023-02-19T05:59:22;9.60;99.90
20839;DHT22;10580;51.092;6.828;2023-02-19T06:01:52;9.60;99.90
20839;DHT22;10580;51.092;6.828;2023-02-19T06:04:18;9.60;99.90
20839;DHT22;10580;51.092;6.828;2023-02-19T06:06:45;9.60;99.90
20839;DHT22;10580;51.092;6.828;2023-02-19T06:09:12;9.60;99.90
20839;DHT22;10580;51.092;6.828;2023-02-19T06:11:38;9.50;99.90
20839;DHT22;10580;51.092;6.828;2023-02-19T06:14:04;9.50;99.90
20839;DHT22;10580;51.092;6.828;2023-02-19T06:16:30;9.50;99.90
20839;DHT22;10580;51.092;6.828;2023-02-19T06:18:58;9.50;99.90
20839;DHT22;10580;51.092;6.828;2023-02-19T06:21:24;9.50;99.90
20839;DHT22;10580;51.092;6.828;2023-02-19T06:23:49;9.50;99.90
20839;DHT22;10580;51.092;6.828;2023-02-19T06:26:21;9.50;99.90
20839;DHT22;10580;51.092;6.828;2023-02-19T06:28:49;9.50;99.90
20839;DHT22;10580;51.092;6.828;2023-02-19T06:31:15;9.40;99.90
20839;DHT22;10580;51.092;6.828;2023-02-19T06:33:41;9.40;99.90
20839;DHT22;10580;51.092;6.828;2023-02-19T06:36:12;9.50;99.90
20839;DHT22;10580;51.092;6.828;2023-02-19T06:38:38;9.40;99.90
20839;DHT22;10580;51.092;6.828;2023-02-19T06:41:05;9.50;99.90
20839;DHT22;10580;51.092;6.828;2023-02-19T06:43:31;9.50;99.90
20839;DHT22;10580;51.092;6.828;2023-02-19T06:45:58;9.50;99.90
20839;DHT22;10580;51.092;6.828;2023-02-19T06:48:25;9.50;99.90
20839;DHT22;10580;51.092;6.828;2023-02-19T06:50:51;9.50;99.90
20839;DHT22;10580;51.092;6.828;2023-02-19T06:53:17;9.50;99.90
20839;DHT22;10580;51.092;6.828;2023-02-19T06:55:42;9.50;99.90
20839;DHT22;10580;51.092;6.828;2023-02-19T06:58:08;9.40;99.90
20839;DHT22;10580;51.092;6.828;2023-02-19T07:00:34;9.40;99.90
20839;DHT22;10580;51.092;6.828;2023-02-19T07:03:00;9.40;99.90
20839;DHT22;10580;51.092;6.828;2023-02-19T07:05:25;9.40;99.90
20839;DHT22;10580;51.092;6.828;2023-02-19T07:07:51;9.40;99.90
20839;DHT22;10580;51.092;6.828;2023-02-19T07:10:16;9.40;99.90
20839;DHT22;10580;51.092;6.828;2023-02-19T07:12:42;9.40;99.90
20839;DHT22;10580;51.092;6.828;2023-02-19T07:15:08;9.40;99.90
20839;DHT22;10580;51.092;6.828;2023-02-19T07:17:34;9.40;99.90
20839;DHT22;10580;51.092;6.828;2023-02-19T07:19:59;9.40;99.90
20839;DHT22;10580;51.092;6.828;2023-02-19T07:22:25;9.40;99.90
20839;DHT22;10580;51.092;6.828;2023-02-19T07:24:51;9.40;99.90
20839;DHT22;10580;51.092;6.828;2023-02-19T07:27:16;9.40;99.90
20839;DHT22;10580;51.092;6.828;2023-02-19T07:29:42;9.50;99.90
20839;DHT22;10580;51.092;6.828;2023-02-19T07:32:08;9.40;99.90
20839;DHT22;10580;51.092;6.828;2023-02-19T07:34:33;9.40;99.90
20839;DHT22;10580;51.092;6.828;2023-02-19T07:36:59;9.50;99.90
20839;DHT22;10580;51.092;6.828;2023-02-19T07:39:24;9.50;99.90
20839;DHT22;10580;51.092;6.828;2023-02-19T07:41:50;9.50;99.90
20839;DHT22;10580;51.092;6.828;2023-02-19T07:44:15;9.50;99.90
20839;DHT22;10580;51.092;6.828;2023-02-19T07:46:42;9.60;99.90
20839;DHT22;10580;51.092;6.828;2023-02-19T07:49:07;9.70;99.90
20839;DHT22;10580;51.092;6.828;2023-02-19T07:51:33;9.60;99.90
20839;DHT22;10580;51.092;6.828;2023-02-19T07:53:59;9.60;99.90
20839;DHT22;10580;51.092;6.828;2023-02-19T07:56:24;9.60;99.90
20839;DHT22;10580;51.092;6.828;2023-02-19T07:58:50;9.60;99.90
20839;DHT22;10580;51.092;6.828;2023-02-19T08:01:21;9.60;99.90
20839;DHT22;10580;51.092;6.828;2023-02-19T08:04:11;9.50;99.90
20839;DHT22;10580;51.092;6.828;2023-02-19T08:06:38;9.50;99.90
20839;DHT22;10580;51.092;6.828;2023-02-19T08:09:04;9.60;99.90
20839;DHT22;10580;51.092;6.828;2023-02-19T08:11:30;9.60;99.90
20839;DHT22;10580;51.092;6.828;2023-02-19T08:14:14;9.60;99.90
20839;DHT22;10580;51.092;6.828;2023-02-19T08:16:46;9.60;99.90
20839;DHT22;10580;51.092;6.828;2023-02-19T08:19:12;9.60;99.90
20839;DHT22;10580;51.092;6.828;2023-02-19T08:21:37;9.60;99.90
20839;DHT22;10580;51.092;6.828;2023-02-19T08:24:03;9.70;99.90
20839;DHT22;10580;51.092;6.828;2023-02-19T08:26:29;9.80;99.90
20839;DHT22;10580;51.092;6.828;2023-02-19T08:28:54;9.80;99.90
20839;DHT22;10580;51.092;6.828;2023-02-19T08:31:20;9.90;99.90
20839;DHT22;10580;51.092;6.828;2023-02-19T08:33:46;9.80;99.90
20839;DHT22;10580;51.092;6.828;2023-02-19T08:36:11;9.90;99.90
20839;DHT22;10580;51.092;6.828;2023-02-19T08:38:50;9.80;99.90
20839;DHT22;10580;51.092;6.828;2023-02-19T08:41:16;9.90;99.90
20839;DHT22;10580;51.092;6.828;2023-02-19T08:43:42;9.90;99.90
20839;DHT22;10580;51.092;6.828;2023-02-19T08:46:11;10.10;99.90
20839;DHT22;10580;51.092;6.828;2023-02-19T08:48:37;10.10;99.90
20839;DHT22;10580;51.092;6.828;2023-02-19T08:51:05;10.20;99.90
20839;DHT22;10580;51.092;6.828;2023-02-19T08:53:33;10.10;99.90
20839;DHT22;10580;51.092;6.828;2023-02-19T08:56:04;10.30;99.90
20839;DHT22;10580;51.092;6.828;2023-02-19T08:58:33;10.40;99.90
20839;DHT22;10580;51.092;6.828;2023-02-19T09:00:59;10.40;99.90
20839;DHT22;10580;51.092;6.828;2023-02-19T09:03:25;10.40;99.90
20839;DHT22;10580;51.092;6.828;2023-02-19T09:05:51;10.50;99.90
20839;DHT22;10580;51.092;6.828;2023-02-19T09:08:17;10.50;99.90
20839;DHT22;10580;51.092;6.828;2023-02-19T09:10:42;10.40;99.90
20839;DHT22;10580;51.092;6.828;2023-02-19T09:13:08;10.50;99.90
20839;DHT22;10580;51.092;6.828;2023-02-19T09:15:33;10.50;99.90
20839;DHT22;10580;51.092;6.828;2023-02-19T09:17:59;10.50;99.90
20839;DHT22;10580;51.092;6.828;2023-02-19T09:20:25;10.50;99.90
20839;DHT22;10580;51.092;6.828;2023-02-19T09:22:56;10.50;99.90
20839;DHT22;10580;51.092;6.828;2023-02-19T09:25:22;10.40;99.90
20839;DHT22;10580;51.092;6.828;2023-02-19T09:27:48;10.40;99.90
20839;DHT22;10580;51.092;6.828;2023-02-19T09:30:13;10.40;99.90
20839;DHT22;10580;51.092;6.828;2023-02-19T09:32:39;10.40;99.90
20839;DHT22;10580;51.092;6.828;2023-02-19T09:35:05;10.40;99.90
20839;DHT22;10580;51.092;6.828;2023-02-19T09:37:30;10.40;99.90
20839;DHT22;10580;51.092;6.828;2023-02-19T09:39:56;10.30;99.90
20839;DHT22;10580;51.092;6.828;2023-02-19T09:42:24;10.30;99.90
20839;DHT22;10580;51.092;6.828;2023-02-19T09:44:55;10.30;99.90
20839;DHT22;10580;51.092;6.828;2023-02-19T09:47:27;10.30;99.90
20839;DHT22;10580;51.092;6.828;2023-02-19T09:49:58;10.20;99.90
20839;DHT22;10580;51.092;6.828;2023-02-19T09:52:42;10.30;99.90
20839;DHT22;10580;51.092;6.828;2023-02-19T09:55:17;10.20;99.90
20839;DHT22;10580;51.092;6.828;2023-02-19T09:57:45;10.20;99.90
20839;DHT22;10580;51.092;6.828;2023-02-19T10:00:21;10.20;99.90
20839;DHT22;10580;51.092;6.828;2023-02-19T10:02:57;10.20;99.90
20839;DHT22;10580;51.092;6.828;2023-02-19T10:05:25;10.10;99.90
20839;DHT22;10580;51.092;6.828;2023-02-19T10:07:52;10.00;99.90
20839;DHT22;10580;51.092;6.828;2023-02-19T10:10:29;9.90;99.90
20839;DHT22;10580;51.092;6.828;2023-02-19T10:15:50;10.00;99.90
20839;DHT22;10580;51.092;6.828;2023-02-19T10:18:22;9.90;99.90
20839;DHT22;10580;51.092;6.828;2023-02-19T10:20:56;9.90;99.90
20839;DHT22;10580;51.092;6.828;2023-02-19T10:23:52;10.00;99.90
20839;DHT22;10580;51.092;6.828;2023-02-19T10:26:21;10.20;99.90
20839;DHT22;10580;51.092;6.828;2023-02-19T10:28:47;10.30;99.90
20839;DHT22;10580;51.092;6.828;2023-02-19T10:34:27;10.40;99.90
20839;DHT22;10580;51.092;6.828;2023-02-19T10:36:53;10.40;99.90
20839;DHT22;10580;51.092;6.828;2023-02-19T10:40:10;10.50;99.90
20839;DHT22;10580;51.092;6.828;2023-02-19T10:42:44;10.40;99.90
20839;DHT22;10580;51.092;6.828;2023-02-19T10:45:18;10.30;99.90
20839;DHT22;10580;51.092;6.828;2023-02-19T10:47:46;10.30;99.90
20839;DHT22;10580;51.092;6.828;2023-02-19T10:50:33;10.50;99.90
20839;DHT22;10580;51.092;6.828;2023-02-19T10:53:04;10.80;99.90
20839;DHT22;10580;51.092;6.828;2023-02-19T10:55:33;11.00;99.90
20839;DHT22;10580;51.092;6.828;2023-02-19T10:58:24;11.20;99.90
20839;DHT22;10580;51.092;6.828;2023-02-19T11:03:38;11.10;99.90
20839;DHT22;10580;51.092;6.828;2023-02-19T11:06:05;11.10;99.90
20839;DHT22;10580;51.092;6.828;2023-02-19T11:08:52;11.10;99.90
20839;DHT22;10580;51.092;6.828;2023-02-19T11:11:24;11.10;99.90
20839;DHT22;10580;51.092;6.828;2023-02-19T11:13:56;11.20;99.90
20839;DHT22;10580;51.092;6.828;2023-02-19T11:16:53;11.20;99.90
20839;DHT22;10580;51.092;6.828;2023-02-19T11:22:01;11.30;99.90
20839;DHT22;10580;51.092;6.828;2023-02-19T11:37:17;11.70;99.90
20839;DHT22;10580;51.092;6.828;2023-02-19T11:39:45;11.60;99.90
20839;DHT22;10580;51.092;6.828;2023-02-19T11:51:54;11.50;99.90
20839;DHT22;10580;51.092;6.828;2023-02-19T12:52:24;11.40;99.90
20839;DHT22;10580;51.092;6.828;2023-02-19T12:54:57;11.50;99.90
20839;DHT22;10580;51.092;6.828;2023-02-19T12:57:44;11.50;99.90
20839;DHT22;10580;51.092;6.828;2023-02-19T13:06:36;11.50;99.90
20839;DHT22;10580;51.092;6.828;2023-02-19T13:15:59;11.80;99.90
20839;DHT22;10580;51.092;6.828;2023-02-19T14:07:48;10.60;99.90
20839;DHT22;10580;51.092;6.828;2023-02-19T14:10:51;10.30;99.90
20839;DHT22;10580;51.092;6.828;2023-02-19T14:18:59;10.20;99.90
20839;DHT22;10580;51.092;6.828;2023-02-19T14:21:43;10.30;99.90
20839;DHT22;10580;51.092;6.828;2023-02-19T14:24:12;10.30;99.90
20839;DHT22;10580;51.092;6.828;2023-02-19T14:26:39;10.20;99.90
20839;DHT22;10580;51.092;6.828;2023-02-19T14:29:12;10.10;99.90
20839;DHT22;10580;51.092;6.828;2023-02-19T14:31:43;10.10;99.90
20839;DHT22;10580;51.092;6.828;2023-02-19T14:34:14;10.00;99.90
20839;DHT22;10580;51.092;6.828;2023-02-19T14:36:43;10.00;99.90
20839;DHT22;10580;51.092;6.828;2023-02-19T14:39:16;9.90;99.90
20839;DHT22;10580;51.092;6.828;2023-02-19T14:41:47;9.90;99.90
20839;DHT22;10580;51.092;6.828;2023-02-19T14:44:17;10.00;99.90
20839;DHT22;10580;51.092;6.828;2023-02-19T14:52:11;10.10;99.90
20839;DHT22;10580;51.092;6.828;2023-02-19T14:54:40;10.10;99.90
20839;DHT22;10580;51.092;6.828;2023-02-19T14:57:18;10.10;99.90
20839;DHT22;10580;51.092;6.828;2023-02-19T14:59:59;10.20;99.90
20839;DHT22;10580;51.092;6.828;2023-02-19T15:02:27;10.20;99.90
20839;DHT22;10580;51.092;6.828;2023-02-19T15:04:54;10.10;99.90
20839;DHT22;10580;51.092;6.828;2023-02-19T15:07:23;10.20;99.90
20839;DHT22;10580;51.092;6.828;2023-02-19T15:09:54;10.20;99.90
20839;DHT22;10580;51.092;6.828;2023-02-19T15:13:01;10.10;99.90
20839;DHT22;10580;51.092;6.828;2023-02-19T15:15:24;10.10;99.90
20839;DHT22;10580;51.092;6.828;2023-02-19T15:17:51;10.10;99.90
20839;DHT22;10580;51.092;6.828;2023-02-19T15:20:20;10.00;99.90
20839;DHT22;10580;51.092;6.828;2023-02-19T15:22:47;10.00;99.90
20839;DHT22;10580;51.092;6.828;2023-02-19T15:25:19;10.00;99.90
20839;DHT22;10580;51.092;6.828;2023-02-19T15:27:45;9.90;99.90
20839;DHT22;10580;51.092;6.828;2023-02-19T15:30:19;9.80;99.90
20839;DHT22;10580;51.092;6.828;2023-02-19T15:32:53;9.80;99.90
20839;DHT22;10580;51.092;6.828;2023-02-19T15:35:20;9.70;99.90
20839;DHT22;10580;51.092;6.828;2023-02-19T15:37:48;9.70;99.90
20839;DHT22;10580;51.092;6.828;2023-02-19T15:40:15;9.70;99.90
20839;DHT22;10580;51.092;6.828;2023-02-19T15:42:43;9.60;99.90
20839;DHT22;10580;51.092;6.828;2023-02-19T15:45:23;9.60;99.90
20839;DHT22;10580;51.092;6.828;2023-02-19T15:48:00;9.60;99.90
20839;DHT22;10580;51.092;6.828;2023-02-19T15:50:33;9.60;99.90
20839;DHT22;10580;51.092;6.828;2023-02-19T15:53:07;9.50;99.90
20839;DHT22;10580;51.092;6.828;2023-02-19T16:03:45;9.50;99.90
20839;DHT22;10580;51.092;6.828;2023-02-19T16:06:13;9.50;99.90
20839;DHT22;10580;51.092;6.828;2023-02-19T16:08:41;9.50;99.90
20839;DHT22;10580;51.092;6.828;2023-02-19T16:11:27;9.50;99.90
20839;DHT22;10580;51.092;6.828;2023-02-19T16:16:41;9.60;99.90
20839;DHT22;10580;51.092;6.828;2023-02-19T16:19:08;9.50;99.90
20839;DHT22;10580;51.092;6.828;2023-02-19T16:21:34;9.50;99.90
20839;DHT22;10580;51.092;6.828;2023-02-19T16:24:24;9.60;99.90
20839;DHT22;10580;51.092;6.828;2023-02-19T16:26:50;9.60;99.90
20839;DHT22;10580;51.092;6.828;2023-02-19T16:29:34;9.60;99.90
20839;DHT22;10580;51.092;6.828;2023-02-19T16:32:05;9.60;99.90
20839;DHT22;10580;51.092;6.828;2023-02-19T16:34:48;9.60;99.90
20839;DHT22;10580;51.092;6.828;2023-02-19T16:37:38;9.50;99.90
20839;DHT22;10580;51.092;6.828;2023-02-19T16:45:16;9.50;99.90
20839;DHT22;10580;51.092;6.828;2023-02-19T16:47:43;9.50;99.90
20839;DHT22;10580;51.092;6.828;2023-02-19T16:50:23;9.50;99.90
20839;DHT22;10580;51.092;6.828;2023-02-19T16:52:53;9.40;99.90
20839;DHT22;10580;51.092;6.828;2023-02-19T16:55:19;9.40;99.90
20839;DHT22;10580;51.092;6.828;2023-02-19T16:57:45;9.30;99.90
20839;DHT22;10580;51.092;6.828;2023-02-19T17:00:22;9.30;99.90
20839;DHT22;10580;51.092;6.828;2023-02-19T17:02:50;9.30;99.90
20839;DHT22;10580;51.092;6.828;2023-02-19T17:05:17;9.20;99.90
20839;DHT22;10580;51.092;6.828;2023-02-19T17:07:43;9.20;99.90
20839;DHT22;10580;51.092;6.828;2023-02-19T17:10:16;9.20;99.90
20839;DHT22;10580;51.092;6.828;2023-02-19T17:12:42;9.20;99.90
20839;DHT22;10580;51.092;6.828;2023-02-19T17:15:08;9.20;99.90
20839;DHT22;10580;51.092;6.828;2023-02-19T17:17:34;9.20;99.90
20839;DHT22;10580;51.092;6.828;2023-02-19T17:19:59;9.20;99.90
20839;DHT22;10580;51.092;6.828;2023-02-19T17:22:27;9.10;99.90
20839;DHT22;10580;51.092;6.828;2023-02-19T17:24:53;9.10;99.90
20839;DHT22;10580;51.092;6.828;2023-02-19T17:27:19;9.10;99.90
20839;DHT22;10580;51.092;6.828;2023-02-19T17:29:45;9.10;99.90
20839;DHT22;10580;51.092;6.828;2023-02-19T17:32:10;9.00;99.90
20839;DHT22;10580;51.092;6.828;2023-02-19T17:34:41;9.00;99.90
20839;DHT22;10580;51.092;6.828;2023-02-19T17:37:15;9.00;99.90
20839;DHT22;10580;51.092;6.828;2023-02-19T17:39:41;9.00;99.90
20839;DHT22;10580;51.092;6.828;2023-02-19T17:42:06;9.00;99.90
20839;DHT22;10580;51.092;6.828;2023-02-19T17:44:32;9.00;99.90
20839;DHT22;10580;51.092;6.828;2023-02-19T17:46:58;9.00;99.90
20839;DHT22;10580;51.092;6.828;2023-02-19T17:49:24;8.90;99.90
20839;DHT22;10580;51.092;6.828;2023-02-19T17:51:59;8.90;99.90
20839;DHT22;10580;51.092;6.828;2023-02-19T17:54:25;8.90;99.90
20839;DHT22;10580;51.092;6.828;2023-02-19T17:56:50;8.80;99.90
20839;DHT22;10580;51.092;6.828;2023-02-19T17:59:16;8.80;99.90
20839;DHT22;10580;51.092;6.828;2023-02-19T18:01:41;8.70;99.90
20839;DHT22;10580;51.092;6.828;2023-02-19T18:04:07;8.70;99.90
20839;DHT22;10580;51.092;6.828;2023-02-19T18:06:33;8.70;99.90
20839;DHT22;10580;51.092;6.828;2023-02-19T18:08:59;8.70;99.90
20839;DHT22;10580;51.092;6.828;2023-02-19T18:11:28;8.70;99.90
20839;DHT22;10580;51.092;6.828;2023-02-19T18:13:53;8.60;99.90
20839;DHT22;10580;51.092;6.828;2023-02-19T18:16:20;8.70;99.90
20839;DHT22;10580;51.092;6.828;2023-02-19T18:18:46;8.60;99.90
20839;DHT22;10580;51.092;6.828;2023-02-19T18:21:12;8.60;99.90
20839;DHT22;10580;51.092;6.828;2023-02-19T18:23:38;8.60;99.90
20839;DHT22;10580;51.092;6.828;2023-02-19T18:26:08;8.50;99.90
20839;DHT22;10580;51.092;6.828;2023-02-19T18:28:34;8.50;99.90
20839;DHT22;10580;51.092;6.828;2023-02-19T18:31:00;8.50;99.90
20839;DHT22;10580;51.092;6.828;2023-02-19T18:33:26;8.50;99.90
20839;DHT22;10580;51.092;6.828;2023-02-19T18:35:52;8.50;99.90
20839;DHT22;10580;51.092;6.828;2023-02-19T18:38:17;8.40;99.90
20839;DHT22;10580;51.092;6.828;2023-02-19T18:40:43;8.40;99.90
20839;DHT22;10580;51.092;6.828;2023-02-19T18:43:09;8.30;99.90
20839;DHT22;10580;51.092;6.828;2023-02-19T18:45:34;8.30;99.90
20839;DHT22;10580;51.092;6.828;2023-02-19T18:48:02;8.30;99.90
20839;DHT22;10580;51.092;6.828;2023-02-19T18:50:28;8.30;99.90
20839;DHT22;10580;51.092;6.828;2023-02-19T18:52:53;8.30;99.90
20839;DHT22;10580;51.092;6.828;2023-02-19T18:55:19;8.30;99.90
20839;DHT22;10580;51.092;6.828;2023-02-19T18:57:45;8.30;99.90
20839;DHT22;10580;51.092;6.828;2023-02-19T19:00:16;8.30;99.90
20839;DHT22;10580;51.092;6.828;2023-02-19T19:02:42;8.30;99.90
20839;DHT22;10580;51.092;6.828;2023-02-19T19:05:08;8.30;99.90
20839;DHT22;10580;51.092;6.828;2023-02-19T19:07:33;8.30;99.90
20839;DHT22;10580;51.092;6.828;2023-02-19T19:09:59;8.40;99.90
20839;DHT22;10580;51.092;6.828;2023-02-19T19:12:24;8.30;99.90
20839;DHT22;10580;51.092;6.828;2023-02-19T19:14:50;8.20;99.90
20839;DHT22;10580;51.092;6.828;2023-02-19T19:17:15;8.20;99.90
20839;DHT22;10580;51.092;6.828;2023-02-19T19:19:44;8.20;99.90
20839;DHT22;10580;51.092;6.828;2023-02-19T19:22:13;8.10;99.90